createdAt,value
2023-01-07T00:01:18.015Z,22.70
2023-01-07T00:03:47.723Z,22.60
2023-01-07T00:06:19.657Z,22.60
2023-01-07T00:08:50.255Z,22.50
2023-01-07T00:11:21.189Z,22.50
2023-01-07T00:13:51.099Z,22.50
2023-01-07T00:16:21.960Z,22.50
2023-01-07T00:18:52.175Z,22.50
2023-01-07T00:21:23.586Z,22.50
2023-01-07T00:23:56.084Z,22.40
2023-01-07T00:26:27.351Z,22.40
2023-01-07T00:29:00.123Z,22.40
2023-01-07T00:31:31.113Z,22.40
2023-01-07T00:34:09.329Z,22.40
2023-01-07T00:36:43.035Z,22.40
2023-01-07T00:39:16.119Z,22.40
2023-01-07T00:42:06.494Z,22.40
2023-01-07T00:44:37.648Z,22.40
2023-01-07T00:47:06.396Z,22.30
2023-01-07T00:49:34.695Z,22.30
2023-01-07T00:52:04.538Z,22.30
2023-01-07T00:54:33.073Z,22.30
2023-01-07T00:57:01.462Z,22.30
2023-01-07T00:59:30.379Z,22.30
2023-01-07T01:01:58.801Z,22.20
2023-01-07T01:04:27.325Z,22.20
2023-01-07T01:06:55.713Z,22.20
2023-01-07T01:09:26.491Z,22.20
2023-01-07T01:11:54.863Z,22.20
2023-01-07T01:14:23.453Z,22.20
2023-01-07T01:16:51.702Z,22.20
2023-01-07T01:19:20.078Z,22.20
2023-01-07T01:21:48.701Z,22.30
2023-01-07T01:24:17.413Z,22.30
2023-01-07T01:26:47.245Z,22.30
2023-01-07T01:29:15.613Z,22.30
2023-01-07T01:31:44.125Z,22.60
2023-01-07T01:34:12.604Z,22.30
2023-01-07T01:36:41.045Z,22.20
2023-01-07T01:39:09.553Z,22.30
2023-01-07T01:41:37.972Z,22.30
2023-01-07T01:44:41.391Z,22.30
2023-01-07T01:47:21.799Z,22.30
2023-01-07T01:49:58.737Z,22.40
2023-01-07T01:52:35.840Z,22.50
2023-01-07T01:55:09.133Z,22.20
2023-01-07T01:57:39.525Z,22.20
2023-01-07T02:00:12.485Z,22.20
2023-01-07T02:02:50.240Z,22.20
2023-01-07T02:05:19.621Z,22.20
2023-01-07T02:07:48.005Z,22.20
2023-01-07T02:10:21.322Z,22.20
2023-01-07T02:13:17.317Z,22.20
2023-01-07T02:15:56.986Z,22.10
2023-01-07T02:18:52.977Z,22.20
2023-01-07T02:21:35.318Z,22.20
2023-01-07T02:25:11.346Z,22.20
2023-01-07T02:28:12.463Z,22.20
2023-01-07T02:31:03.965Z,22.10
2023-01-07T02:33:47.022Z,22.20
2023-01-07T02:36:39.764Z,22.20
2023-01-07T02:39:26.065Z,22.20
2023-01-07T02:41:59.994Z,22.20
2023-01-07T02:44:40.022Z,22.10
2023-01-07T02:47:14.916Z,22.10
2023-01-07T02:49:46.997Z,22.20
2023-01-07T02:52:22.903Z,22.10
2023-01-07T02:54:57.308Z,22.10
2023-01-07T02:58:07.941Z,22.10
2023-01-07T03:01:11.199Z,22.00
2023-01-07T03:04:01.517Z,22.10
2023-01-07T03:06:48.723Z,22.10
2023-01-07T03:09:30.354Z,22.10
2023-01-07T03:12:09.659Z,22.10
2023-01-07T03:14:43.588Z,22.10
2023-01-07T03:17:18.812Z,22.10
2023-01-07T03:19:52.155Z,22.10
2023-01-07T03:22:26.031Z,22.10
2023-01-07T03:24:58.104Z,22.10
2023-01-07T03:27:28.884Z,22.10
2023-01-07T03:29:57.837Z,22.10
2023-01-07T03:32:30.853Z,22.10
2023-01-07T03:34:59.719Z,22.10
2023-01-07T03:37:33.834Z,22.10
2023-01-07T03:40:09.843Z,22.10
2023-01-07T03:42:41.372Z,22.10
2023-01-07T03:45:22.187Z,22.10
2023-01-07T03:47:52.717Z,22.10
2023-01-07T03:50:22.687Z,22.00
2023-01-07T03:52:53.631Z,22.00
2023-01-07T03:55:24.502Z,22.00
2023-01-07T03:57:56.334Z,22.00
2023-01-07T04:00:26.246Z,22.00
2023-01-07T04:03:01.368Z,22.00
2023-01-07T04:05:34.381Z,22.00
2023-01-07T04:08:04.197Z,22.00
2023-01-07T04:10:35.790Z,22.00
2023-01-07T04:13:04.113Z,22.00
2023-01-07T04:15:32.584Z,22.00
2023-01-07T04:18:00.938Z,22.00
2023-01-07T04:20:30.179Z,22.00
2023-01-07T04:22:58.446Z,22.00
2023-01-07T04:25:28.205Z,22.00
2023-01-07T04:27:57.307Z,22.00
2023-01-07T04:30:25.751Z,22.00
2023-01-07T04:32:54.957Z,22.00
2023-01-07T04:35:23.761Z,22.00
2023-01-07T04:37:52.228Z,22.00
2023-01-07T04:40:20.565Z,22.00
2023-01-07T04:42:51.017Z,22.10
2023-01-07T04:45:19.464Z,22.00
2023-01-07T04:47:48.540Z,22.00
2023-01-07T04:50:17.248Z,22.00
2023-01-07T04:52:46.467Z,22.00
2023-01-07T04:55:14.771Z,22.00
2023-01-07T04:57:43.576Z,22.00
2023-01-07T05:00:15.959Z,22.00
2023-01-07T05:02:47.194Z,22.00
2023-01-07T05:05:15.509Z,22.00
2023-01-07T05:07:45.230Z,22.00
2023-01-07T05:10:14.571Z,22.00
2023-01-07T05:12:43.421Z,22.00
2023-01-07T05:15:14.820Z,22.00
2023-01-07T05:17:44.383Z,21.90
2023-01-07T05:20:13.615Z,21.90
2023-01-07T05:22:42.192Z,21.90
2023-01-07T05:25:11.715Z,21.90
2023-01-07T05:27:40.195Z,21.90
2023-01-07T05:30:11.850Z,21.90
2023-01-07T05:32:41.622Z,21.90
2023-01-07T05:35:10.538Z,21.90
2023-01-07T05:37:39.316Z,21.90
2023-01-07T05:40:11.125Z,22.00
2023-01-07T05:42:39.864Z,22.00
2023-01-07T05:45:10.065Z,22.00
2023-01-07T05:47:38.380Z,22.00
2023-01-07T05:50:09.150Z,22.00
2023-01-07T05:52:37.504Z,22.00
2023-01-07T05:55:07.255Z,22.00
2023-01-07T05:57:35.764Z,22.20
2023-01-07T06:00:04.420Z,21.90
2023-01-07T06:02:40.235Z,21.90
2023-01-07T06:05:11.351Z,21.90
2023-01-07T06:07:40.004Z,21.90
2023-01-07T06:10:09.103Z,21.90
2023-01-07T06:12:37.431Z,21.90
2023-01-07T06:15:07.461Z,21.90
2023-01-07T06:17:36.284Z,21.90
2023-01-07T06:20:05.516Z,21.90
2023-01-07T06:22:35.199Z,21.90
2023-01-07T06:25:03.583Z,21.90
2023-01-07T06:27:31.990Z,22.00
2023-01-07T06:30:00.300Z,22.00
2023-01-07T06:32:28.608Z,22.00
2023-01-07T06:34:56.965Z,22.50
2023-01-07T06:37:25.238Z,22.10
2023-01-07T06:39:54.919Z,22.10
2023-01-07T06:42:23.196Z,22.20
2023-01-07T06:44:51.458Z,22.20
2023-01-07T06:47:19.743Z,22.20
2023-01-07T06:49:48.093Z,22.10
2023-01-07T06:52:16.416Z,22.10
2023-01-07T06:54:45.936Z,22.10
2023-01-07T06:57:17.303Z,22.10
2023-01-07T06:59:45.673Z,22.10
2023-01-07T07:02:20.151Z,22.10
2023-01-07T07:04:48.591Z,22.10
2023-01-07T07:07:17.461Z,22.10
2023-01-07T07:09:45.956Z,22.10
2023-01-07T07:12:16.023Z,22.10
2023-01-07T07:14:44.430Z,22.10
2023-01-07T07:17:13.132Z,22.00
2023-01-07T07:19:41.451Z,22.00
2023-01-07T07:22:10.016Z,22.00
2023-01-07T07:24:38.416Z,22.00
2023-01-07T07:27:06.705Z,22.00
2023-01-07T07:29:36.337Z,22.00
2023-01-07T07:32:05.014Z,21.80
2023-01-07T07:34:35.194Z,22.00
2023-01-07T07:37:04.239Z,22.00
2023-01-07T07:39:33.623Z,21.90
2023-01-07T07:42:04.665Z,21.90
2023-01-07T07:44:33.117Z,21.90
2023-01-07T07:47:02.787Z,21.90
2023-01-07T07:49:31.317Z,22.00
2023-01-07T07:51:59.593Z,22.00
2023-01-07T07:54:28.458Z,22.00
2023-01-07T07:56:58.331Z,21.90
2023-01-07T07:59:26.832Z,21.90
2023-01-07T08:01:55.165Z,21.90
2023-01-07T08:04:25.104Z,21.90
2023-01-07T08:06:53.496Z,21.90
2023-01-07T08:09:21.873Z,22.20
2023-01-07T08:11:50.169Z,21.90
2023-01-07T08:14:18.443Z,21.90
2023-01-07T08:16:46.731Z,21.90
2023-01-07T08:19:15.769Z,21.90
2023-01-07T08:21:45.447Z,21.90
2023-01-07T08:24:13.816Z,21.90
2023-01-07T08:26:42.172Z,21.90
2023-01-07T08:29:10.532Z,21.90
2023-01-07T08:31:38.946Z,21.90
2023-01-07T08:34:07.492Z,21.90
2023-01-07T08:36:35.813Z,21.80
2023-01-07T08:39:05.647Z,21.80
2023-01-07T08:41:33.945Z,21.80
2023-01-07T08:44:02.196Z,21.80
2023-01-07T08:46:30.578Z,21.80
2023-01-07T08:48:58.869Z,21.80
2023-01-07T08:51:27.160Z,21.80
2023-01-07T08:53:56.502Z,21.90
2023-01-07T08:56:26.140Z,22.00
2023-01-07T08:58:54.453Z,22.00
2023-01-07T09:01:22.883Z,22.10
2023-01-07T09:03:51.353Z,22.40
2023-01-07T09:06:19.753Z,22.10
2023-01-07T09:08:48.096Z,22.20
2023-01-07T09:11:16.541Z,22.20
2023-01-07T09:13:46.188Z,22.20
2023-01-07T09:16:14.566Z,22.20
2023-01-07T09:18:42.951Z,22.20
2023-01-07T09:21:11.365Z,22.20
2023-01-07T09:23:40.378Z,22.20
2023-01-07T09:26:09.426Z,22.20
2023-01-07T09:28:37.695Z,22.10
2023-01-07T09:31:08.617Z,22.10
2023-01-07T09:33:36.928Z,22.10
2023-01-07T09:36:05.951Z,22.10
2023-01-07T09:38:34.296Z,22.00
2023-01-07T09:41:02.681Z,22.00
2023-01-07T09:43:59.759Z,22.00
2023-01-07T09:46:32.177Z,22.00
2023-01-07T09:49:04.207Z,22.00
2023-01-07T09:51:39.019Z,22.00
2023-01-07T09:54:30.652Z,22.00
2023-01-07T09:56:59.223Z,22.10
2023-01-07T09:59:27.886Z,22.00
2023-01-07T10:02:08.818Z,22.00
2023-01-07T10:04:44.098Z,22.10
2023-01-07T10:07:28.815Z,22.00
2023-01-07T10:10:09.885Z,22.00
2023-01-07T10:12:45.208Z,22.00
2023-01-07T10:15:40.325Z,22.00
2023-01-07T10:18:31.532Z,22.00
2023-01-07T10:21:13.581Z,21.90
2023-01-07T10:23:46.002Z,21.90
2023-01-07T10:26:26.109Z,21.90
2023-01-07T10:28:58.760Z,21.90
2023-01-07T10:31:28.570Z,21.90
2023-01-07T10:33:59.644Z,21.90
2023-01-07T10:36:29.922Z,21.90
2023-01-07T10:39:13.662Z,21.90
2023-01-07T10:41:54.159Z,21.90
2023-01-07T10:45:05.544Z,21.90
2023-01-07T10:47:57.205Z,21.90
2023-01-07T10:51:01.365Z,21.90
2023-01-07T10:53:47.569Z,21.90
2023-01-07T10:56:27.401Z,21.90
2023-01-07T10:58:55.953Z,21.90
2023-01-07T11:01:27.989Z,22.00
2023-01-07T11:03:58.752Z,21.90
2023-01-07T11:06:40.462Z,22.10
2023-01-07T11:09:16.020Z,22.20
2023-01-07T11:11:44.887Z,22.20
2023-01-07T11:14:19.032Z,22.20
2023-01-07T11:16:52.726Z,22.20
2023-01-07T11:19:21.907Z,22.20
2023-01-07T11:21:52.177Z,22.20
2023-01-07T11:24:33.433Z,22.20
2023-01-07T11:27:06.542Z,22.20
2023-01-07T11:29:43.532Z,22.20
2023-01-07T11:32:23.063Z,22.20
2023-01-07T11:35:00.790Z,22.20
2023-01-07T11:37:38.306Z,22.20
2023-01-07T11:40:22.651Z,22.20
2023-01-07T11:42:55.282Z,22.10
2023-01-07T11:45:26.379Z,22.10
2023-01-07T11:48:02.579Z,22.10
2023-01-07T11:50:37.395Z,22.10
2023-01-07T11:53:24.790Z,22.10
2023-01-07T11:56:06.392Z,22.10
2023-01-07T11:58:38.440Z,22.10
2023-01-07T12:01:19.614Z,22.10
2023-01-07T12:04:19.906Z,22.10
2023-01-07T12:06:51.990Z,22.20
2023-01-07T12:09:27.848Z,22.20
2023-01-07T12:11:59.797Z,22.30
2023-01-07T12:14:31.315Z,22.30
2023-01-07T12:17:11.506Z,22.30
2023-01-07T12:20:11.741Z,22.50
2023-01-07T12:22:49.586Z,22.30
2023-01-07T12:25:33.759Z,22.30
2023-01-07T12:28:13.882Z,22.30
2023-01-07T12:31:11.740Z,22.30
2023-01-07T12:33:56.129Z,22.30
2023-01-07T12:36:36.382Z,22.30
2023-01-07T12:39:13.790Z,22.40
2023-01-07T12:41:58.085Z,22.40
2023-01-07T12:44:26.811Z,22.40
2023-01-07T12:47:32.687Z,22.40
2023-01-07T12:50:04.046Z,22.40
2023-01-07T12:52:42.323Z,22.40
2023-01-07T12:55:20.782Z,22.40
2023-01-07T12:58:05.296Z,22.30
2023-01-07T13:00:40.657Z,22.30
2023-01-07T13:03:23.281Z,22.40
2023-01-07T13:05:57.564Z,22.30
2023-01-07T13:08:38.418Z,22.30
2023-01-07T13:11:20.101Z,22.30
2023-01-07T13:13:53.624Z,22.30
2023-01-07T13:16:21.926Z,22.30
2023-01-07T13:18:50.309Z,22.20
2023-01-07T13:21:21.270Z,22.20
2023-01-07T13:24:15.383Z,22.20
2023-01-07T13:26:58.948Z,22.20
2023-01-07T13:29:45.421Z,22.20
2023-01-07T13:32:45.501Z,22.20
2023-01-07T13:35:42.546Z,22.20
2023-01-07T13:38:32.041Z,22.20
2023-01-07T13:41:23.494Z,22.20
2023-01-07T13:44:18.783Z,22.20
2023-01-07T13:46:49.045Z,22.20
2023-01-07T13:49:27.490Z,22.20
2023-01-07T13:51:56.301Z,22.20
2023-01-07T13:54:57.718Z,22.20
2023-01-07T13:57:50.891Z,22.20
2023-01-07T14:00:43.021Z,22.20
2023-01-07T14:03:50.328Z,22.20
2023-01-07T14:06:43.415Z,22.30
2023-01-07T14:09:36.880Z,22.30
2023-01-07T14:13:06.525Z,22.30
2023-01-07T14:16:03.069Z,22.40
2023-01-07T14:19:13.952Z,22.40
2023-01-07T14:21:53.109Z,22.40
2023-01-07T14:24:54.174Z,22.40
2023-01-07T14:27:53.805Z,22.30
2023-01-07T14:30:33.791Z,22.30
2023-01-07T14:33:04.800Z,22.30
2023-01-07T14:35:40.695Z,22.20
2023-01-07T14:38:57.771Z,22.20
2023-01-07T14:41:26.320Z,22.20
2023-01-07T14:44:30.308Z,22.20
2023-01-07T14:46:58.656Z,22.10
2023-01-07T14:50:05.505Z,22.10
2023-01-07T14:53:20.981Z,22.10
2023-01-07T14:56:17.737Z,22.10
2023-01-07T14:59:37.479Z,22.10
2023-01-07T15:02:44.630Z,22.10
2023-01-07T15:06:09.717Z,22.10
2023-01-07T15:09:06.649Z,22.10
2023-01-07T15:11:54.285Z,21.70
2023-01-07T15:14:47.942Z,22.10
2023-01-07T15:17:17.662Z,22.10
2023-01-07T15:19:46.259Z,22.10
2023-01-07T15:22:39.656Z,22.10
2023-01-07T15:25:26.989Z,22.10
2023-01-07T15:28:07.673Z,22.00
2023-01-07T15:30:49.475Z,22.00
2023-01-07T15:33:39.246Z,22.00
2023-01-07T15:36:13.661Z,22.10
2023-01-07T15:38:47.947Z,22.00
2023-01-07T15:41:30.932Z,22.00
2023-01-07T15:44:02.127Z,22.00
2023-01-07T15:46:32.747Z,22.00
2023-01-07T15:49:21.234Z,22.00
2023-01-07T15:51:53.273Z,22.00
2023-01-07T15:54:42.441Z,22.00
2023-01-07T15:57:16.472Z,22.00
2023-01-07T15:59:48.479Z,22.00
2023-01-07T16:02:25.042Z,22.10
2023-01-07T16:04:55.562Z,22.10
2023-01-07T16:07:28.702Z,22.20
2023-01-07T16:09:58.620Z,22.20
2023-01-07T16:12:37.352Z,22.20
2023-01-07T16:15:25.447Z,22.20
2023-01-07T16:17:54.526Z,22.20
2023-01-07T16:20:29.386Z,22.00
2023-01-07T16:23:19.196Z,22.00
2023-01-07T16:25:51.750Z,22.30
2023-01-07T16:28:24.774Z,22.20
2023-01-07T16:30:53.704Z,22.20
2023-01-07T16:33:25.493Z,22.30
2023-01-07T16:35:57.054Z,22.20
2023-01-07T16:38:26.317Z,22.30
2023-01-07T16:40:55.374Z,22.40
2023-01-07T16:43:43.467Z,22.40
2023-01-07T16:46:23.657Z,22.40
2023-01-07T16:49:27.809Z,22.40
2023-01-07T16:52:05.972Z,22.40
2023-01-07T16:54:37.365Z,22.30
2023-01-07T16:57:19.418Z,22.30
2023-01-07T16:59:53.956Z,22.20
2023-01-07T17:02:31.796Z,22.20
2023-01-07T17:05:18.458Z,21.80
2023-01-07T17:07:49.303Z,22.30
2023-01-07T17:10:26.035Z,22.10
2023-01-07T17:13:02.138Z,22.20
2023-01-07T17:15:39.406Z,22.20
2023-01-07T17:18:30.327Z,22.20
2023-01-07T17:21:00.795Z,22.20
2023-01-07T17:23:48.711Z,22.10
2023-01-07T17:26:23.426Z,22.10
2023-01-07T17:28:54.688Z,22.10
2023-01-07T17:31:25.438Z,22.10
2023-01-07T17:33:54.700Z,22.10
2023-01-07T17:36:25.418Z,22.10
2023-01-07T17:38:54.191Z,22.10
2023-01-07T17:41:41.816Z,22.10
2023-01-07T17:44:12.918Z,22.10
2023-01-07T17:46:43.592Z,22.10
2023-01-07T17:49:12.685Z,22.00
2023-01-07T17:51:43.196Z,22.10
2023-01-07T17:54:21.080Z,22.00
2023-01-07T17:56:49.505Z,22.00
2023-01-07T17:59:20.256Z,22.00
2023-01-07T18:01:50.807Z,22.00
2023-01-07T18:04:21.392Z,22.00
2023-01-07T18:06:49.699Z,22.00
2023-01-07T18:09:18.069Z,22.00
2023-01-07T18:12:04.825Z,22.00
2023-01-07T18:14:33.305Z,22.00
2023-01-07T18:17:02.971Z,22.10
2023-01-07T18:19:31.394Z,22.10
2023-01-07T18:21:59.700Z,22.10
2023-01-07T18:24:28.089Z,22.10
2023-01-07T18:26:56.758Z,22.10
2023-01-07T18:29:25.268Z,22.10
2023-01-07T18:31:53.743Z,20.70
2023-01-07T18:34:23.661Z,20.60
2023-01-07T18:36:53.388Z,22.10
2023-01-07T18:39:21.750Z,22.10
2023-01-07T18:41:50.987Z,22.10
2023-01-07T18:44:19.665Z,22.10
2023-01-07T18:46:48.265Z,21.80
2023-01-07T18:49:16.969Z,22.20
2023-01-07T18:51:48.697Z,22.20
2023-01-07T18:54:17.697Z,22.30
2023-01-07T18:56:46.712Z,22.20
2023-01-07T18:59:15.245Z,22.10
2023-01-07T19:01:43.736Z,22.10
2023-01-07T19:04:12.195Z,22.10
2023-01-07T19:06:40.584Z,22.10
2023-01-07T19:09:10.264Z,22.10
2023-01-07T19:11:39.267Z,22.10
2023-01-07T19:14:07.557Z,22.10
2023-01-07T19:16:38.288Z,22.10
2023-01-07T19:19:07.526Z,22.10
2023-01-07T19:21:35.887Z,22.10
2023-01-07T19:24:04.645Z,22.10
2023-01-07T19:26:35.165Z,22.10
2023-01-07T19:29:04.274Z,22.10
2023-01-07T19:31:32.677Z,22.10
2023-01-07T19:34:02.747Z,22.10
2023-01-07T19:36:31.594Z,22.00
2023-01-07T19:38:59.854Z,22.00
2023-01-07T19:41:28.686Z,22.00
2023-01-07T19:44:02.040Z,22.00
2023-01-07T19:46:33.370Z,22.00
2023-01-07T19:49:01.850Z,22.20
2023-01-07T19:51:30.145Z,22.20
2023-01-07T19:53:58.510Z,22.10
2023-01-07T19:56:27.122Z,22.10
2023-01-07T19:58:55.704Z,22.10
2023-01-07T20:01:26.760Z,22.10
2023-01-07T20:03:56.065Z,22.10
2023-01-07T20:06:27.391Z,22.10
2023-01-07T20:08:57.298Z,22.10
2023-01-07T20:11:26.278Z,22.10
2023-01-07T20:13:54.631Z,22.10
2023-01-07T20:16:25.290Z,22.20
2023-01-07T20:18:55.993Z,22.20
2023-01-07T20:21:27.144Z,22.20
2023-01-07T20:23:56.034Z,22.20
2023-01-07T20:26:27.001Z,22.20
2023-01-07T20:28:55.991Z,22.20
2023-01-07T20:31:28.951Z,22.20
2023-01-07T20:33:57.782Z,22.20
2023-01-07T20:36:28.661Z,22.20
2023-01-07T20:38:57.380Z,22.20
2023-01-07T20:41:28.205Z,22.20
2023-01-07T20:43:58.501Z,22.20
2023-01-07T20:46:30.607Z,22.20
2023-01-07T20:48:59.532Z,22.20
2023-01-07T20:51:28.331Z,22.20
2023-01-07T20:53:56.664Z,22.20
2023-01-07T20:56:26.199Z,22.20
2023-01-07T20:58:57.320Z,22.20
2023-01-07T21:01:26.959Z,22.20
2023-01-07T21:03:55.523Z,22.20
2023-01-07T21:06:24.255Z,22.20
2023-01-07T21:08:52.597Z,22.20
2023-01-07T21:11:23.066Z,22.20
2023-01-07T21:13:52.195Z,22.10
2023-01-07T21:16:20.963Z,22.20
2023-01-07T21:18:50.814Z,22.20
2023-01-07T21:21:23.899Z,22.20
2023-01-07T21:23:53.019Z,22.10
2023-01-07T21:26:21.966Z,22.10
2023-01-07T21:28:52.919Z,22.10
2023-01-07T21:31:21.260Z,22.20
2023-01-07T21:33:53.963Z,22.10
2023-01-07T21:36:23.052Z,22.10
2023-01-07T21:38:56.500Z,22.10
2023-01-07T21:41:26.135Z,22.10
2023-01-07T21:43:54.613Z,21.90
2023-01-07T21:46:23.557Z,22.10
2023-01-07T21:48:53.571Z,22.10
2023-01-07T21:51:24.287Z,22.00
2023-01-07T21:53:55.609Z,22.00
2023-01-07T21:56:25.937Z,22.00
2023-01-07T21:58:54.360Z,22.00
2023-01-07T22:01:28.213Z,22.00
2023-01-07T22:04:02.007Z,21.90
2023-01-07T22:06:33.336Z,22.00
2023-01-07T22:09:05.288Z,22.00
2023-01-07T22:11:35.168Z,22.00
2023-01-07T22:14:04.131Z,22.10
2023-01-07T22:16:34.084Z,22.20
2023-01-07T22:19:04.841Z,22.10
2023-01-07T22:21:34.213Z,22.10
2023-01-07T22:24:02.884Z,22.10
2023-01-07T22:26:31.474Z,22.10
2023-01-07T22:29:03.392Z,22.10
2023-01-07T22:31:36.382Z,22.10
2023-01-07T22:34:07.755Z,22.10
2023-01-07T22:36:43.650Z,22.10
2023-01-07T22:39:18.230Z,22.10
2023-01-07T22:41:47.570Z,22.00
2023-01-07T22:44:22.571Z,22.10
2023-01-07T22:46:53.170Z,22.00
2023-01-07T22:49:28.407Z,22.00
2023-01-07T22:51:57.200Z,22.00
2023-01-07T22:54:27.222Z,22.00
2023-01-07T22:56:56.098Z,22.00
2023-01-07T22:59:24.516Z,22.00
2023-01-07T23:01:53.099Z,22.00
2023-01-07T23:04:22.851Z,22.00
2023-01-07T23:06:51.264Z,22.00
2023-01-07T23:09:20.039Z,22.00
2023-01-07T23:11:51.882Z,22.00
2023-01-07T23:14:23.959Z,22.00
2023-01-07T23:16:53.656Z,22.00
2023-01-07T23:19:23.803Z,22.00
2023-01-07T23:21:55.004Z,22.00
2023-01-07T23:24:24.248Z,22.00
2023-01-07T23:26:54.941Z,22.00
2023-01-07T23:29:24.061Z,22.00
2023-01-07T23:31:53.073Z,22.00
2023-01-07T23:34:23.026Z,22.00
2023-01-07T23:36:51.502Z,22.00
2023-01-07T23:39:19.912Z,22.00
2023-01-07T23:41:48.568Z,22.00
2023-01-07T23:44:17.263Z,22.00
2023-01-07T23:46:45.704Z,22.00
2023-01-07T23:49:14.232Z,22.00
2023-01-07T23:51:44.117Z,22.00
2023-01-07T23:54:12.748Z,22.00
2023-01-07T23:56:41.268Z,22.00
2023-01-07T23:59:11.045Z,22.00
